This is the latest recevied weather packets stored in our database for station/object URMM. If no packets are shown the sender has not sent any weather packets the latest 10 day(s).
| Time | Temp. | Humidity | Pressure | Rain* | Wind** | Luminosity | Snow |
|---|---|---|---|---|---|---|---|
| 1777545055 | 16.67° C | 48% | 1017 hPa | - | - | - | - |
| 1777543254 | 16.67° C | 48% | 1018 hPa | - | - | - | - |
| 1777541455 | 16.67° C | 51% | 1018 hPa | - | - | - | - |
| 1777539654 | 15.56° C | 55% | 1018 hPa | - | - | - | - |
| 1777536058 | 15° C | 54% | 1018 hPa | - | - | - | - |
| 1777534254 | 15° C | 54% | 1019 hPa | - | - | - | - |
| 1777532455 | 13.89° C | 58% | 1019 hPa | - | - | - | - |
| 1777530655 | 13.89° C | 58% | 1019 hPa | - | - | - | - |
| 1777528854 | 12.78° C | 66% | 1019 hPa | - | - | - | - |
| 1777525255 | 8.89° C | 75% | 1019 hPa | - | - | - | - |
| 1777523454 | 6.67° C | 87% | 1019 hPa | - | - | - | - |
| 1777521655 | 5.56° C | 93% | 1019 hPa | - | - | - | - |
| 1777519855 | 5° C | 93% | 1019 hPa | - | - | - | - |
| 1777518057 | 3.89° C | 93% | 1019 hPa | - | - | - | - |
| 1777516255 | 5° C | 93% | 1019 hPa | - | - | - | - |
| 1777514455 | 5° C | 93% | 1019 hPa | - | - | - | - |
| 1777512656 | 3.89° C | 93% | 1019 hPa | - | - | - | - |
| 1777509055 | 6.67° C | 81% | 1019 hPa | - | - | - | - |
| 1777507254 | 5.56° C | 86% | 1019 hPa | - | - | - | - |
| 1777505455 | 5.56° C | 81% | 1019 hPa | - | - | - | - |
| 1777503656 | 5.56° C | 86% | 1019 hPa | - | - | - | - |
| 1777501856 | 5.56° C | 86% | 1019 hPa | - | - | - | - |
| 1777500055 | 5.56° C | 86% | 1019 hPa | - | - | - | - |
| 1777498255 | 6.67° C | 81% | 1019 hPa | - | - | - | - |
| 1777496457 | 5.56° C | 86% | 1019 hPa | - | - | - | - |
* Rain since midnight (hover to see other rain measurements)
** Current wind speed in m/s (hover to see current wind gust speed)